createdAt,value
2022-11-27T00:01:10.732Z,4.11
2022-11-27T00:03:13.841Z,4.13
2022-11-27T00:05:17.138Z,4.11
2022-11-27T00:07:20.409Z,4.13
2022-11-27T00:09:23.640Z,4.12
2022-11-27T00:11:29.815Z,4.12
2022-11-27T00:13:32.888Z,4.10
2022-11-27T00:15:35.974Z,4.09
2022-11-27T00:17:39.064Z,4.09
2022-11-27T00:19:42.400Z,4.09
2022-11-27T00:21:45.537Z,4.07
2022-11-27T00:23:48.869Z,4.03
2022-11-27T00:25:52.551Z,3.99
2022-11-27T00:27:56.970Z,3.97
2022-11-27T00:29:59.956Z,3.94
2022-11-27T00:32:03.525Z,3.93
2022-11-27T00:34:08.665Z,3.89
2022-11-27T00:36:12.725Z,3.89
2022-11-27T00:38:15.856Z,3.86
2022-11-27T00:40:19.099Z,3.87
2022-11-27T00:42:22.126Z,3.85
2022-11-27T00:44:26.553Z,3.86
2022-11-27T00:46:34.117Z,3.85
2022-11-27T00:48:37.526Z,3.83
2022-11-27T00:50:40.811Z,3.82
2022-11-27T00:52:43.796Z,3.81
2022-11-27T00:54:46.848Z,3.80
2022-11-27T00:56:49.827Z,3.81
2022-11-27T00:58:53.046Z,3.79
2022-11-27T01:00:57.757Z,3.80
2022-11-27T01:03:00.818Z,3.77
2022-11-27T01:05:03.813Z,3.75
2022-11-27T01:07:06.751Z,3.76
2022-11-27T01:09:10.749Z,3.76
2022-11-27T01:11:15.713Z,3.74
2022-11-27T01:13:18.768Z,3.74
2022-11-27T01:15:21.961Z,3.72
2022-11-27T01:17:26.552Z,3.71
2022-11-27T01:19:29.486Z,3.68
2022-11-27T01:21:34.674Z,3.66
2022-11-27T01:23:37.779Z,3.66
2022-11-27T01:25:40.804Z,3.65
2022-11-27T01:27:43.744Z,3.65
2022-11-27T01:29:46.743Z,3.62
2022-11-27T01:31:49.876Z,3.61
2022-11-27T01:33:56.431Z,3.59
2022-11-27T01:36:00.991Z,3.58
2022-11-27T01:38:04.412Z,3.57
2022-11-27T01:40:08.983Z,3.58
2022-11-27T01:42:12.390Z,3.59
2022-11-27T01:44:49.892Z,3.56
2022-11-27T01:46:54.717Z,3.57
2022-11-27T01:49:02.713Z,3.58
2022-11-27T01:51:06.017Z,3.59
2022-11-27T01:53:14.337Z,3.58
2022-11-27T01:55:22.964Z,3.58
2022-11-27T01:57:28.599Z,3.59
2022-11-27T01:59:31.756Z,3.60
2022-11-27T02:01:34.973Z,3.61
2022-11-27T02:03:38.711Z,3.61
2022-11-27T02:05:44.400Z,3.60
2022-11-27T02:07:48.465Z,3.59
2022-11-27T02:09:52.534Z,3.59
2022-11-27T02:12:02.719Z,3.57
2022-11-27T02:14:12.086Z,3.56
2022-11-27T02:16:20.721Z,3.52
2022-11-27T02:18:32.287Z,3.49
2022-11-27T02:20:41.891Z,3.45
2022-11-27T02:22:59.213Z,3.42
2022-11-27T02:25:07.945Z,3.46
2022-11-27T02:27:34.647Z,3.45
2022-11-27T02:29:40.879Z,3.45
2022-11-27T02:31:50.882Z,3.46
2022-11-27T02:33:56.265Z,3.45
2022-11-27T02:36:03.715Z,3.44
2022-11-27T02:38:10.265Z,3.46
2022-11-27T02:40:18.503Z,3.45
2022-11-27T02:42:22.668Z,3.43
2022-11-27T02:44:27.463Z,3.45
2022-11-27T02:46:32.544Z,3.45
2022-11-27T02:48:40.201Z,3.45
2022-11-27T02:50:45.395Z,3.45
2022-11-27T02:52:50.754Z,3.43
2022-11-27T02:54:57.153Z,3.43
2022-11-27T02:57:03.627Z,3.42
2022-11-27T02:59:10.543Z,3.43
2022-11-27T03:01:15.143Z,3.44
2022-11-27T03:03:22.536Z,3.44
2022-11-27T03:05:29.792Z,3.43
2022-11-27T03:07:38.897Z,3.41
2022-11-27T03:09:46.282Z,3.40
2022-11-27T03:11:49.937Z,3.36
2022-11-27T03:13:55.112Z,3.35
2022-11-27T03:16:04.471Z,3.33
2022-11-27T03:18:13.621Z,3.33
2022-11-27T03:20:23.039Z,3.33
2022-11-27T03:22:28.017Z,3.30
2022-11-27T03:24:32.158Z,3.31
2022-11-27T03:26:35.865Z,3.31
2022-11-27T03:28:39.421Z,3.33
2022-11-27T03:30:42.862Z,3.32
2022-11-27T03:32:46.920Z,3.34
2022-11-27T03:34:50.334Z,3.33
2022-11-27T03:36:54.904Z,3.33
2022-11-27T03:38:58.071Z,3.32
2022-11-27T03:41:04.444Z,3.32
2022-11-27T03:43:12.204Z,3.29
2022-11-27T03:45:18.956Z,3.28
2022-11-27T03:47:35.657Z,3.26
2022-11-27T03:49:50.360Z,3.21
2022-11-27T03:51:59.845Z,3.18
2022-11-27T03:54:06.715Z,3.18
2022-11-27T03:56:14.483Z,3.15
2022-11-27T03:58:22.222Z,3.13
2022-11-27T04:00:25.590Z,3.09
2022-11-27T04:02:31.505Z,3.08
2022-11-27T04:04:34.943Z,3.06
2022-11-27T04:06:37.987Z,3.05
2022-11-27T04:08:42.943Z,3.05
2022-11-27T04:10:45.978Z,3.06
2022-11-27T04:12:49.005Z,3.05
2022-11-27T04:14:52.262Z,3.04
2022-11-27T04:16:55.222Z,3.08
2022-11-27T04:18:58.279Z,3.08
2022-11-27T04:21:01.569Z,3.06
2022-11-27T04:23:04.821Z,3.06
2022-11-27T04:25:10.375Z,3.07
2022-11-27T04:27:13.421Z,3.04
2022-11-27T04:29:16.361Z,3.03
2022-11-27T04:31:19.396Z,3.02
2022-11-27T04:33:22.617Z,2.98
2022-11-27T04:35:25.634Z,2.95
2022-11-27T04:37:28.617Z,2.96
2022-11-27T04:39:31.781Z,2.95
2022-11-27T04:41:36.062Z,2.93
2022-11-27T04:43:38.959Z,2.93
2022-11-27T04:45:43.813Z,2.94
2022-11-27T04:47:46.826Z,2.95
2022-11-27T04:49:49.787Z,2.96
2022-11-27T04:51:52.735Z,2.96
2022-11-27T04:53:55.791Z,2.97
2022-11-27T04:55:58.769Z,2.95
2022-11-27T04:58:03.132Z,2.96
2022-11-27T05:00:07.469Z,2.94
2022-11-27T05:02:11.861Z,2.91
2022-11-27T05:04:14.969Z,2.91
2022-11-27T05:06:17.947Z,2.90
2022-11-27T05:08:20.962Z,2.87
2022-11-27T05:10:23.964Z,2.88
2022-11-27T05:12:26.966Z,2.90
2022-11-27T05:14:31.606Z,2.91
2022-11-27T05:16:34.577Z,2.88
2022-11-27T05:18:37.735Z,2.87
2022-11-27T05:20:40.909Z,2.86
2022-11-27T05:22:44.272Z,2.85
2022-11-27T05:24:47.209Z,2.85
2022-11-27T05:26:50.721Z,2.84
2022-11-27T05:28:53.765Z,2.83
2022-11-27T05:30:58.109Z,2.83
2022-11-27T05:33:01.204Z,2.80
2022-11-27T05:35:04.416Z,2.79
2022-11-27T05:37:07.460Z,2.78
2022-11-27T05:39:11.153Z,2.73
2022-11-27T05:41:14.224Z,2.68
2022-11-27T05:43:17.173Z,2.66
2022-11-27T05:45:20.504Z,2.62
2022-11-27T05:47:24.884Z,2.63
2022-11-27T05:49:27.957Z,2.64
2022-11-27T05:51:31.177Z,2.65
2022-11-27T05:53:34.751Z,2.67
2022-11-27T05:55:37.895Z,2.68
2022-11-27T05:57:40.905Z,2.70
2022-11-27T05:59:43.908Z,2.70
2022-11-27T06:01:46.906Z,2.72
2022-11-27T06:03:51.277Z,2.71
2022-11-27T06:05:54.369Z,2.72
2022-11-27T06:07:57.407Z,2.75
2022-11-27T06:10:00.433Z,2.77
2022-11-27T06:12:03.387Z,2.79
2022-11-27T06:14:08.539Z,2.80
2022-11-27T06:16:13.765Z,2.79
2022-11-27T06:18:16.700Z,2.77
2022-11-27T06:20:21.360Z,2.76
2022-11-27T06:22:24.381Z,2.76
2022-11-27T06:24:27.874Z,2.73
2022-11-27T06:26:32.753Z,2.72
2022-11-27T06:28:35.682Z,2.69
2022-11-27T06:30:39.089Z,2.70
2022-11-27T06:32:42.332Z,2.73
2022-11-27T06:34:45.287Z,2.69
2022-11-27T06:36:50.613Z,2.67
2022-11-27T06:38:53.695Z,2.65
2022-11-27T06:40:56.660Z,2.64
2022-11-27T06:43:02.867Z,2.62
2022-11-27T06:45:08.198Z,2.61
2022-11-27T06:47:11.358Z,2.62
2022-11-27T06:49:14.456Z,2.64
2022-11-27T06:51:18.961Z,2.65
2022-11-27T06:53:23.748Z,2.66
2022-11-27T06:55:26.912Z,2.69
2022-11-27T06:57:30.037Z,2.68
2022-11-27T06:59:33.213Z,2.63
2022-11-27T07:01:36.315Z,2.61
2022-11-27T07:03:39.677Z,2.57
2022-11-27T07:05:42.834Z,2.55
2022-11-27T07:07:45.871Z,2.54
2022-11-27T07:09:50.277Z,2.55
2022-11-27T07:11:53.307Z,2.55
2022-11-27T07:13:58.173Z,2.54
2022-11-27T07:16:02.336Z,2.56
2022-11-27T07:18:05.387Z,2.59
2022-11-27T07:20:09.586Z,2.59
2022-11-27T07:22:12.620Z,2.61
2022-11-27T07:24:15.573Z,2.66
2022-11-27T07:26:21.834Z,2.77
2022-11-27T07:28:25.871Z,2.85
2022-11-27T07:30:28.987Z,2.93
2022-11-27T07:32:32.569Z,3.03
2022-11-27T07:34:35.568Z,3.11
2022-11-27T07:36:38.579Z,3.19
2022-11-27T07:38:41.747Z,3.28
2022-11-27T07:40:44.739Z,3.37
2022-11-27T07:42:50.639Z,3.49
2022-11-27T07:44:53.686Z,3.65
2022-11-27T07:46:57.496Z,3.79
2022-11-27T07:49:01.275Z,3.92
2022-11-27T07:51:07.048Z,4.05
2022-11-27T07:53:10.516Z,4.20
2022-11-27T07:55:13.610Z,4.37
2022-11-27T07:57:16.674Z,4.51
2022-11-27T07:59:21.152Z,4.61
2022-11-27T08:01:24.244Z,4.74
2022-11-27T08:03:27.341Z,4.88
2022-11-27T08:05:30.408Z,5.00
2022-11-27T08:07:33.455Z,5.10
2022-11-27T08:09:37.784Z,5.15
2022-11-27T08:11:41.425Z,5.18
2022-11-27T08:13:44.773Z,5.05
2022-11-27T08:15:49.169Z,4.90
2022-11-27T08:17:52.242Z,4.77
2022-11-27T08:19:55.314Z,4.67
2022-11-27T08:21:58.377Z,4.60
2022-11-27T08:24:01.407Z,4.57
2022-11-27T08:26:07.091Z,4.55
2022-11-27T08:28:10.074Z,4.53
2022-11-27T08:30:13.480Z,4.49
2022-11-27T08:32:18.020Z,4.46
2022-11-27T08:34:21.075Z,4.47
2022-11-27T08:36:26.514Z,4.47
2022-11-27T08:38:29.873Z,4.47
2022-11-27T08:40:33.385Z,4.47
2022-11-27T08:42:36.480Z,4.56
2022-11-27T08:44:39.721Z,4.88
2022-11-27T08:46:44.221Z,5.11
2022-11-27T08:48:48.572Z,5.30
2022-11-27T08:50:51.937Z,5.42
2022-11-27T08:52:54.878Z,5.57
2022-11-27T08:54:58.407Z,5.70
2022-11-27T08:57:01.593Z,5.84
2022-11-27T08:59:04.781Z,5.87
2022-11-27T09:01:09.698Z,5.92
2022-11-27T09:03:13.325Z,6.01
2022-11-27T09:05:17.867Z,6.12
2022-11-27T09:07:20.996Z,6.20
2022-11-27T09:09:24.034Z,6.23
2022-11-27T09:11:27.369Z,6.24
2022-11-27T09:13:30.471Z,6.32
2022-11-27T09:15:33.697Z,6.40
2022-11-27T09:17:36.813Z,6.50
2022-11-27T09:19:39.779Z,6.50
2022-11-27T09:21:44.288Z,6.52
2022-11-27T09:23:47.336Z,6.62
2022-11-27T09:25:50.495Z,6.67
2022-11-27T09:27:53.560Z,6.78
2022-11-27T09:29:56.642Z,6.86
2022-11-27T09:31:59.721Z,7.01
2022-11-27T09:34:04.325Z,7.09
2022-11-27T09:36:09.064Z,7.14
2022-11-27T09:38:13.448Z,7.15
2022-11-27T09:40:17.969Z,7.21
2022-11-27T09:42:30.878Z,7.36
2022-11-27T09:44:40.035Z,7.44
2022-11-27T09:46:44.149Z,7.46
2022-11-27T09:48:50.508Z,7.53
2022-11-27T09:50:54.756Z,7.65
2022-11-27T09:53:00.803Z,7.76
2022-11-27T09:55:11.126Z,7.86
2022-11-27T09:57:17.312Z,7.93
2022-11-27T09:59:22.846Z,8.06
2022-11-27T10:01:36.480Z,8.20
2022-11-27T10:03:44.864Z,8.26
2022-11-27T10:05:49.688Z,8.36
2022-11-27T10:08:08.842Z,8.41
2022-11-27T10:10:25.958Z,8.42
2022-11-27T10:12:35.093Z,8.36
2022-11-27T10:14:55.079Z,8.45
2022-11-27T10:17:01.770Z,8.56
2022-11-27T10:19:10.005Z,8.59
2022-11-27T10:21:16.790Z,8.53
2022-11-27T10:23:25.908Z,8.55
2022-11-27T10:25:36.131Z,8.70
2022-11-27T10:27:44.152Z,8.77
2022-11-27T10:29:50.478Z,8.80
2022-11-27T10:31:57.392Z,8.84
2022-11-27T10:34:02.700Z,8.90
2022-11-27T10:36:09.219Z,9.00
2022-11-27T10:38:15.523Z,9.11
2022-11-27T10:40:22.289Z,9.20
2022-11-27T10:42:33.002Z,9.26
2022-11-27T10:44:39.589Z,9.30
2022-11-27T10:46:42.971Z,9.33
2022-11-27T10:48:45.973Z,9.38
2022-11-27T10:50:49.862Z,9.48
2022-11-27T10:52:55.463Z,9.43
2022-11-27T10:55:00.338Z,9.45
2022-11-27T10:57:50.747Z,9.58
2022-11-27T11:00:05.676Z,9.70
2022-11-27T11:02:28.152Z,9.79
2022-11-27T11:04:39.947Z,9.87
2022-11-27T11:06:45.387Z,9.97
2022-11-27T11:08:48.502Z,9.98
2022-11-27T11:10:54.898Z,9.99
2022-11-27T11:13:15.230Z,10.06
2022-11-27T11:15:19.873Z,10.13
2022-11-27T11:17:27.539Z,10.14
2022-11-27T11:19:32.515Z,10.16
2022-11-27T11:21:40.445Z,10.21
2022-11-27T11:23:43.683Z,10.24
2022-11-27T11:25:50.775Z,10.24
2022-11-27T11:27:54.117Z,10.23
2022-11-27T11:29:59.892Z,10.25
2022-11-27T11:32:10.985Z,10.28
2022-11-27T11:34:20.399Z,10.34
2022-11-27T11:36:23.751Z,10.43
2022-11-27T11:38:31.021Z,10.47
2022-11-27T11:40:35.763Z,10.55
2022-11-27T11:42:38.815Z,10.60
2022-11-27T11:44:42.293Z,10.66
2022-11-27T11:46:52.713Z,10.69
2022-11-27T11:49:00.407Z,10.73
2022-11-27T11:51:09.343Z,10.76
2022-11-27T11:53:16.633Z,10.77
2022-11-27T11:55:21.454Z,10.81
2022-11-27T11:58:02.556Z,10.82
2022-11-27T12:00:10.041Z,10.87
2022-11-27T12:02:40.688Z,10.90
2022-11-27T12:05:02.932Z,10.93
2022-11-27T12:07:15.281Z,10.95
2022-11-27T12:09:28.740Z,10.96
2022-11-27T12:11:37.740Z,10.96
2022-11-27T12:13:52.370Z,10.96
2022-11-27T12:16:00.949Z,10.95
2022-11-27T12:18:08.018Z,10.94
2022-11-27T12:20:18.382Z,10.96
2022-11-27T12:22:37.049Z,10.99
2022-11-27T12:24:46.799Z,11.01
2022-11-27T12:27:02.581Z,11.01
2022-11-27T12:29:21.978Z,11.01
2022-11-27T12:31:32.760Z,10.99
2022-11-27T12:33:45.171Z,10.99
2022-11-27T12:35:54.212Z,10.96
2022-11-27T12:38:06.465Z,10.98
2022-11-27T12:40:25.671Z,11.01
2022-11-27T12:42:31.987Z,11.00
2022-11-27T12:44:44.953Z,11.00
2022-11-27T12:46:53.992Z,11.02
2022-11-27T12:49:00.294Z,11.00
2022-11-27T12:51:08.248Z,10.96
2022-11-27T12:53:20.177Z,10.92
2022-11-27T12:55:30.178Z,10.85
2022-11-27T12:57:39.852Z,10.84
2022-11-27T12:59:46.891Z,10.78
2022-11-27T13:01:55.414Z,10.76
2022-11-27T13:04:06.838Z,10.75
2022-11-27T13:06:13.573Z,10.74
2022-11-27T13:08:20.114Z,10.74
2022-11-27T13:10:26.584Z,10.77
2022-11-27T13:12:32.828Z,10.77
2022-11-27T13:14:37.081Z,10.80
2022-11-27T13:16:46.738Z,10.81
2022-11-27T13:18:53.153Z,10.81
2022-11-27T13:20:59.496Z,10.80
2022-11-27T13:23:03.931Z,10.75
2022-11-27T13:25:07.676Z,10.77
2022-11-27T13:27:13.460Z,10.79
2022-11-27T13:29:20.188Z,10.78
2022-11-27T13:31:25.392Z,10.79
2022-11-27T13:33:37.691Z,10.77
2022-11-27T13:35:42.061Z,10.77
2022-11-27T13:37:46.161Z,10.76
2022-11-27T13:39:50.674Z,10.75
2022-11-27T13:42:03.901Z,10.73
2022-11-27T13:44:11.571Z,10.73
2022-11-27T13:46:21.946Z,10.72
2022-11-27T13:48:33.113Z,10.70
2022-11-27T13:50:44.434Z,10.68
2022-11-27T13:52:57.269Z,10.70
2022-11-27T13:55:03.152Z,10.71
2022-11-27T13:57:14.398Z,10.68
2022-11-27T13:59:19.543Z,10.65
2022-11-27T14:01:24.631Z,10.62
2022-11-27T14:03:29.139Z,10.63
2022-11-27T14:05:37.783Z,10.56
2022-11-27T14:07:42.909Z,10.50
2022-11-27T14:09:48.024Z,10.45
2022-11-27T14:11:53.517Z,10.43
2022-11-27T14:13:57.848Z,10.41
2022-11-27T14:16:02.747Z,10.37
2022-11-27T14:18:09.402Z,10.32
2022-11-27T14:20:30.531Z,10.32
2022-11-27T14:23:09.923Z,10.32
2022-11-27T14:25:18.964Z,10.30
2022-11-27T14:27:25.414Z,10.27
2022-11-27T14:29:31.314Z,10.24
2022-11-27T14:31:36.385Z,10.20
2022-11-27T14:34:13.492Z,10.20
2022-11-27T14:36:08.963Z,10.19
2022-11-27T14:38:12.655Z,10.18
2022-11-27T14:40:16.829Z,10.15
2022-11-27T14:42:28.120Z,10.11
2022-11-27T14:44:32.723Z,10.11
2022-11-27T14:46:37.662Z,10.11
2022-11-27T14:48:44.708Z,10.11
2022-11-27T14:50:48.674Z,10.04
2022-11-27T14:52:54.123Z,10.03
2022-11-27T14:54:58.448Z,10.01
2022-11-27T14:57:01.783Z,10.01
2022-11-27T14:59:06.736Z,10.00
2022-11-27T15:01:23.473Z,9.98
2022-11-27T15:03:27.538Z,9.95
2022-11-27T15:05:37.995Z,9.91
2022-11-27T15:07:47.886Z,9.87
2022-11-27T15:09:55.382Z,9.83
2022-11-27T15:12:02.054Z,9.78
2022-11-27T15:14:07.933Z,9.72
2022-11-27T15:16:15.919Z,9.63
2022-11-27T15:18:23.273Z,9.58
2022-11-27T15:20:29.704Z,9.50
2022-11-27T15:22:33.608Z,9.45
2022-11-27T15:24:37.775Z,9.41
2022-11-27T15:26:43.289Z,9.38
2022-11-27T15:28:52.771Z,9.37
2022-11-27T15:30:57.975Z,9.38
2022-11-27T15:33:01.260Z,9.36
2022-11-27T15:35:14.205Z,9.37
2022-11-27T15:37:23.439Z,9.36
2022-11-27T15:39:28.590Z,9.34
2022-11-27T15:41:31.754Z,9.32
2022-11-27T15:43:34.982Z,9.31
2022-11-27T15:45:38.131Z,9.29
2022-11-27T15:47:42.528Z,9.26
2022-11-27T15:49:46.153Z,9.27
2022-11-27T15:51:49.247Z,9.27
2022-11-27T15:53:53.438Z,9.24
2022-11-27T15:55:56.526Z,9.23
2022-11-27T15:57:59.539Z,9.23
2022-11-27T16:00:04.080Z,9.24
2022-11-27T16:02:17.967Z,9.23
2022-11-27T16:04:25.064Z,9.25
2022-11-27T16:06:28.177Z,9.25
2022-11-27T16:08:31.256Z,9.25
2022-11-27T16:10:34.536Z,9.28
2022-11-27T16:12:38.784Z,9.29
2022-11-27T16:14:42.235Z,9.32
2022-11-27T16:16:45.674Z,9.35
2022-11-27T16:18:48.878Z,9.34
2022-11-27T16:20:53.270Z,9.29
2022-11-27T16:22:56.542Z,9.27
2022-11-27T16:24:59.582Z,9.23
2022-11-27T16:27:02.675Z,9.17
2022-11-27T16:29:05.937Z,9.14
2022-11-27T16:31:10.644Z,9.16
2022-11-27T16:33:13.833Z,9.19
2022-11-27T16:35:16.915Z,9.20
2022-11-27T16:37:23.294Z,9.20
2022-11-27T16:39:26.975Z,9.21
2022-11-27T16:41:30.063Z,9.21
2022-11-27T16:43:36.297Z,9.21
2022-11-27T16:45:40.237Z,9.23
2022-11-27T16:47:44.910Z,9.21
2022-11-27T16:49:50.192Z,9.22
2022-11-27T16:51:53.452Z,9.24
2022-11-27T16:54:01.933Z,9.22
2022-11-27T16:56:05.554Z,9.19
2022-11-27T16:58:08.816Z,9.14
2022-11-27T17:00:12.541Z,9.09
2022-11-27T17:02:15.953Z,9.05
2022-11-27T17:04:20.551Z,8.96
2022-11-27T17:06:26.561Z,8.91
2022-11-27T17:08:29.657Z,8.86
2022-11-27T17:10:34.165Z,8.82
2022-11-27T17:12:37.247Z,8.78
2022-11-27T17:14:42.506Z,8.72
2022-11-27T17:16:45.804Z,8.67
2022-11-27T17:18:50.326Z,8.63
2022-11-27T17:20:53.552Z,8.62
2022-11-27T17:22:56.764Z,8.61
2022-11-27T17:25:00.214Z,8.57
2022-11-27T17:27:04.883Z,8.52
2022-11-27T17:29:07.967Z,8.52
2022-11-27T17:31:11.885Z,8.53
2022-11-27T17:33:15.369Z,8.52
2022-11-27T17:35:18.551Z,8.52
2022-11-27T17:37:22.085Z,8.51
2022-11-27T17:39:25.140Z,8.48
2022-11-27T17:41:28.217Z,8.45
2022-11-27T17:43:32.584Z,8.42
2022-11-27T17:45:35.895Z,8.33
2022-11-27T17:47:39.104Z,8.25
2022-11-27T17:49:42.904Z,8.13
2022-11-27T17:51:46.928Z,8.03
2022-11-27T17:53:50.797Z,7.92
2022-11-27T17:55:55.510Z,7.87
2022-11-27T17:57:59.356Z,7.83
2022-11-27T18:00:03.968Z,7.85
2022-11-27T18:02:17.837Z,7.80
2022-11-27T18:04:21.495Z,7.82
2022-11-27T18:06:24.581Z,7.84
2022-11-27T18:08:28.136Z,7.88
2022-11-27T18:10:31.309Z,7.90
2022-11-27T18:12:34.585Z,7.93
2022-11-27T18:14:38.049Z,7.95
2022-11-27T18:16:42.835Z,7.99
2022-11-27T18:18:46.549Z,8.03
2022-11-27T18:20:49.680Z,8.08
2022-11-27T18:22:52.853Z,8.11
2022-11-27T18:24:56.196Z,8.16
2022-11-27T18:27:08.174Z,8.18
2022-11-27T18:29:12.216Z,8.23
2022-11-27T18:31:17.636Z,8.26
2022-11-27T18:33:23.534Z,8.27
2022-11-27T18:35:26.814Z,8.24
2022-11-27T18:37:30.034Z,8.26
2022-11-27T18:39:33.424Z,8.27
2022-11-27T18:41:37.228Z,8.26
2022-11-27T18:43:40.570Z,8.22
2022-11-27T18:45:43.985Z,8.19
2022-11-27T18:47:47.248Z,8.18
2022-11-27T18:49:52.179Z,8.17
2022-11-27T18:51:56.479Z,8.17
2022-11-27T18:53:59.995Z,8.17
2022-11-27T18:56:05.301Z,8.16
2022-11-27T18:58:09.001Z,8.16
2022-11-27T19:00:14.057Z,8.14
2022-11-27T19:02:17.456Z,8.12
2022-11-27T19:04:20.665Z,8.12
2022-11-27T19:06:25.561Z,8.09
2022-11-27T19:08:28.777Z,8.09
2022-11-27T19:10:31.997Z,8.08
2022-11-27T19:12:35.195Z,8.08
2022-11-27T19:14:38.532Z,8.10
2022-11-27T19:16:46.104Z,8.10
2022-11-27T19:18:50.181Z,8.10
2022-11-27T19:20:55.145Z,8.09
2022-11-27T19:23:00.438Z,8.10
2022-11-27T19:25:03.725Z,8.09
2022-11-27T19:27:06.967Z,8.09
2022-11-27T19:29:16.361Z,8.12
2022-11-27T19:31:21.176Z,8.13
2022-11-27T19:33:25.200Z,8.13
2022-11-27T19:35:28.356Z,8.12
2022-11-27T19:37:34.722Z,8.07
2022-11-27T19:39:40.278Z,8.07
2022-11-27T19:41:43.975Z,8.04
2022-11-27T19:43:47.741Z,8.03
2022-11-27T19:45:51.016Z,8.03
2022-11-27T19:47:54.422Z,8.02
2022-11-27T19:49:59.630Z,8.05
2022-11-27T19:52:02.834Z,8.02
2022-11-27T19:54:10.243Z,8.00
2022-11-27T19:56:16.541Z,7.96
2022-11-27T19:58:19.986Z,7.95
2022-11-27T20:00:23.755Z,7.98
2022-11-27T20:02:27.517Z,8.00
2022-11-27T20:04:30.753Z,8.00
2022-11-27T20:06:33.919Z,7.97
2022-11-27T20:08:37.861Z,7.96
2022-11-27T20:10:41.119Z,7.93
2022-11-27T20:12:45.567Z,7.91
2022-11-27T20:14:49.120Z,7.89
2022-11-27T20:16:52.428Z,7.90
2022-11-27T20:18:56.395Z,7.91
2022-11-27T20:21:05.591Z,7.90
2022-11-27T20:23:08.808Z,7.91
2022-11-27T20:25:19.513Z,7.91
2022-11-27T20:27:23.317Z,7.92
2022-11-27T20:29:27.845Z,7.88
2022-11-27T20:31:32.660Z,7.85
2022-11-27T20:33:35.900Z,7.82
2022-11-27T20:35:42.616Z,7.81
2022-11-27T20:37:45.708Z,7.79
2022-11-27T20:39:49.472Z,7.78
2022-11-27T20:41:53.670Z,7.78
2022-11-27T20:43:58.424Z,7.75
2022-11-27T20:46:02.988Z,7.69
2022-11-27T20:48:08.938Z,7.70
2022-11-27T20:50:13.080Z,7.70
2022-11-27T20:52:18.909Z,7.70
2022-11-27T20:54:23.115Z,7.68
2022-11-27T20:56:27.147Z,7.66
2022-11-27T20:58:30.283Z,7.65
2022-11-27T21:00:33.782Z,7.65
2022-11-27T21:02:41.705Z,7.65
2022-11-27T21:04:44.949Z,7.65
2022-11-27T21:06:50.132Z,7.66
2022-11-27T21:08:54.851Z,7.68
2022-11-27T21:10:58.627Z,7.67
2022-11-27T21:13:01.889Z,7.66
2022-11-27T21:15:05.755Z,7.66
2022-11-27T21:17:08.963Z,7.64
2022-11-27T21:19:16.370Z,7.64
2022-11-27T21:21:19.415Z,7.62
2022-11-27T21:23:22.834Z,7.62
2022-11-27T21:25:27.242Z,7.61
2022-11-27T21:27:30.812Z,7.59
2022-11-27T21:29:34.356Z,7.56
2022-11-27T21:31:39.977Z,7.50
2022-11-27T21:33:47.785Z,7.45
2022-11-27T21:35:56.953Z,7.44
2022-11-27T21:38:00.779Z,7.46
2022-11-27T21:40:04.472Z,7.48
2022-11-27T21:42:07.912Z,7.47
2022-11-27T21:44:11.086Z,7.47
2022-11-27T21:46:17.441Z,7.48
2022-11-27T21:48:20.738Z,7.48
2022-11-27T21:50:23.775Z,7.44
2022-11-27T21:52:28.317Z,7.38
2022-11-27T21:54:31.413Z,7.35
2022-11-27T21:56:37.577Z,7.29
2022-11-27T21:58:40.693Z,7.30
2022-11-27T22:00:43.851Z,7.28
2022-11-27T22:02:46.990Z,7.28
2022-11-27T22:04:50.538Z,7.27
2022-11-27T22:06:53.750Z,7.26
2022-11-27T22:08:59.841Z,7.26
2022-11-27T22:11:03.196Z,7.25
2022-11-27T22:13:06.238Z,7.24
2022-11-27T22:15:10.013Z,7.25
2022-11-27T22:17:13.282Z,7.24
2022-11-27T22:19:18.046Z,7.24
2022-11-27T22:21:21.419Z,7.24
2022-11-27T22:23:24.795Z,7.24
2022-11-27T22:25:29.328Z,7.23
2022-11-27T22:27:32.399Z,7.23
2022-11-27T22:29:35.518Z,7.21
2022-11-27T22:31:39.198Z,7.17
2022-11-27T22:33:43.190Z,7.09
2022-11-27T22:35:46.230Z,7.03
2022-11-27T22:37:49.277Z,7.05
2022-11-27T22:39:52.559Z,7.10
2022-11-27T22:41:56.987Z,7.15
2022-11-27T22:44:02.549Z,7.17
2022-11-27T22:46:07.665Z,7.21
2022-11-27T22:48:10.890Z,7.26
2022-11-27T22:50:13.933Z,7.30
2022-11-27T22:52:16.934Z,7.33
2022-11-27T22:54:20.014Z,7.32
2022-11-27T22:56:23.556Z,7.12
2022-11-27T22:58:29.031Z,6.96
2022-11-27T23:00:32.728Z,6.98
2022-11-27T23:02:38.412Z,7.05
2022-11-27T23:04:42.316Z,7.09
2022-11-27T23:06:48.445Z,7.13
2022-11-27T23:08:52.916Z,7.18
2022-11-27T23:10:55.951Z,7.21
2022-11-27T23:12:59.075Z,7.22
2022-11-27T23:15:03.526Z,7.18
2022-11-27T23:17:06.699Z,7.11
2022-11-27T23:19:10.258Z,7.10
2022-11-27T23:21:15.257Z,7.14
2022-11-27T23:23:18.296Z,7.13
2022-11-27T23:25:21.292Z,7.16
2022-11-27T23:27:24.305Z,7.16
2022-11-27T23:29:27.508Z,7.17
2022-11-27T23:31:35.115Z,7.13
2022-11-27T23:33:39.288Z,7.10
2022-11-27T23:35:42.225Z,7.11
2022-11-27T23:37:45.287Z,7.06
2022-11-27T23:39:48.327Z,6.99
2022-11-27T23:41:51.438Z,6.98
2022-11-27T23:43:55.227Z,6.98
2022-11-27T23:45:59.433Z,6.98
2022-11-27T23:48:03.857Z,6.96
2022-11-27T23:50:08.487Z,6.94
2022-11-27T23:52:16.834Z,6.95
2022-11-27T23:54:20.368Z,6.99
2022-11-27T23:56:25.051Z,6.99
2022-11-27T23:58:28.083Z,6.99
